Wetterdaten: Woche 13.01.20 - 19.01.20 (KW3)
Datum Zeit Temp. A. Feuchte A. Luftdruck Regen Wind Richtung Taupunkt Windchill Windben
13.01.2020 00:00 -3,0 C 82 % 1026,9 hPa 0,0 l/m 0,0 km/h N -5,6 C -3,0 C 0,0 km/h
13.01.2020 01:00 -3,5 C 82 % 1027,1 hPa 0,0 l/m 0,0 km/h N -6,1 C -3,5 C 0,0 km/h
13.01.2020 02:00 -3,9 C 82 % 1027,3 hPa 0,0 l/m 0,0 km/h N -6,5 C -3,9 C 0,0 km/h
13.01.2020 03:00 -4,2 C 82 % 1027,5 hPa 0,0 l/m 0,0 km/h N -6,8 C -4,2 C 0,0 km/h
13.01.2020 04:00 -3,8 C 82 % 1027,5 hPa 0,0 l/m 0,0 km/h N -6,4 C -3,8 C 0,0 km/h
13.01.2020 05:00 -2,8 C 81 % 1027,6 hPa 0,0 l/m 0,0 km/h N -5,5 C -2,8 C 0,0 km/h
13.01.2020 06:00 -2,1 C 82 % 1027,5 hPa 0,0 l/m 0,0 km/h N -4,8 C -2,1 C 0,0 km/h
13.01.2020 07:00 -1,7 C 82 % 1027,3 hPa 0,0 l/m 0,0 km/h N -4,3 C -1,7 C 0,0 km/h
13.01.2020 08:00 -1,3 C 82 % 1027,6 hPa 0,0 l/m 0,0 km/h N -4,0 C -1,3 C 0,0 km/h
13.01.2020 09:00 -0,6 C 82 % 1027,4 hPa 0,0 l/m 0,0 km/h N -3,3 C -0,6 C 0,0 km/h
13.01.2020 10:00 0,7 C 82 % 1027,3 hPa 0,0 l/m 0,1 km/h N -2,0 C 0,7 C 1,6 km/h
13.01.2020 11:00 2,3 C 82 % 1026,8 hPa 0,0 l/m 0,0 km/h N -0,5 C 2,3 C 0,4 km/h
13.01.2020 12:00 3,3 C 81 % 1025,7 hPa 0,0 l/m 0,0 km/h N 0,4 C 3,3 C 0,8 km/h
13.01.2020 13:00 4,0 C 82 % 1024,6 hPa 0,0 l/m 0,1 km/h N 1,2 C 4,0 C 0,8 km/h
13.01.2020 14:00 4,5 C 82 % 1023,9 hPa 0,0 l/m 0,0 km/h N 1,6 C 4,5 C 0,8 km/h
13.01.2020 15:00 3,6 C 81 % 1023,4 hPa 0,0 l/m 0,0 km/h N 0,6 C 3,6 C 0,0 km/h
13.01.2020 16:00 2,1 C 81 % 1023,2 hPa 0,0 l/m 0,0 km/h N -0,8 C 2,1 C 0,0 km/h
13.01.2020 17:00 1,2 C 82 % 1023,3 hPa 0,0 l/m 0,0 km/h N -1,5 C 1,2 C 0,4 km/h
13.01.2020 18:00 0,8 C 82 % 1023,5 hPa 0,0 l/m 0,0 km/h N -1,9 C 0,8 C 0,0 km/h
13.01.2020 19:00 0,5 C 82 % 1023,5 hPa 0,0 l/m 0,0 km/h N -2,2 C 0,5 C 0,0 km/h
13.01.2020 20:00 0,3 C 82 % 1023,5 hPa 0,0 l/m 0,0 km/h N -2,5 C 0,3 C 0,0 km/h
13.01.2020 21:00 -0,2 C 82 % 1023,5 hPa 0,0 l/m 0,0 km/h N -2,9 C -0,2 C 0,0 km/h
13.01.2020 22:00 -0,5 C 82 % 1023,4 hPa 0,0 l/m 0,0 km/h N -3,1 C -0,5 C 0,0 km/h
13.01.2020 23:00 -0,7 C 82 % 1023,4 hPa 0,0 l/m 0,0 km/h N -3,3 C -0,7 C 0,4 km/h
14.01.2020 00:00 -0,9 C 82 % 1023,0 hPa 0,0 l/m 0,0 km/h N -3,5 C -0,9 C 0,0 km/h
14.01.2020 01:00 -0,9 C 82 % 1022,5 hPa 0,0 l/m 0,0 km/h N -3,6 C -0,9 C 0,4 km/h
14.01.2020 02:00 -1,1 C 82 % 1022,9 hPa 0,0 l/m 0,0 km/h N -3,7 C -1,1 C 0,0 km/h
14.01.2020 03:00 -1,2 C 82 % 1023,1 hPa 0,0 l/m 0,0 km/h N -3,8 C -1,2 C 0,0 km/h
14.01.2020 04:00 -1,3 C 82 % 1023,2 hPa 0,0 l/m 0,0 km/h N -4,0 C -1,3 C 0,4 km/h
14.01.2020 05:00 -1,2 C 82 % 1023,0 hPa 0,0 l/m 0,0 km/h N -3,9 C -1,2 C 0,8 km/h
14.01.2020 06:00 -1,2 C 82 % 1022,8 hPa 0,0 l/m 0,1 km/h N -3,8 C -1,2 C 2,8 km/h
14.01.2020 07:00 -1,2 C 82 % 1022,9 hPa 0,0 l/m 0,1 km/h N -3,9 C -1,2 C 2,4 km/h
14.01.2020 08:00 -1,2 C 82 % 1023,2 hPa 0,0 l/m 0,1 km/h N -3,9 C -1,2 C 3,6 km/h
14.01.2020 09:00 -1,2 C 82 % 1023,6 hPa 0,0 l/m 0,0 km/h N -3,8 C -1,2 C 1,6 km/h
14.01.2020 10:00 -0,9 C 82 % 1023,9 hPa 0,0 l/m 0,0 km/h N -3,6 C -0,9 C 1,2 km/h
14.01.2020 11:00 -0,7 C 82 % 1023,8 hPa 0,0 l/m 0,0 km/h N -3,4 C -0,7 C 0,8 km/h
14.01.2020 12:00 -0,6 C 82 % 1023,6 hPa 0,0 l/m 0,0 km/h N -3,3 C -0,6 C 0,4 km/h
14.01.2020 13:00 -0,6 C 82 % 1023,5 hPa 0,0 l/m 0,0 km/h N -3,3 C -0,6 C 2,0 km/h
14.01.2020 14:00 -0,6 C 82 % 1023,8 hPa 0,0 l/m 0,1 km/h N -3,3 C -0,6 C 2,0 km/h
14.01.2020 15:00 -0,7 C 82 % 1024,3 hPa 0,0 l/m 0,2 km/h N -3,4 C -0,7 C 2,4 km/h
14.01.2020 16:00 -0,7 C 82 % 1024,6 hPa 0,0 l/m 0,1 km/h N -3,4 C -0,7 C 2,4 km/h
14.01.2020 17:00 -0,8 C 82 % 1025,1 hPa 0,0 l/m 0,1 km/h N -3,4 C -0,8 C 2,0 km/h
14.01.2020 18:00 -0,8 C 82 % 1025,4 hPa 0,0 l/m 0,2 km/h N -3,5 C -0,8 C 3,2 km/h
14.01.2020 19:00 -0,8 C 82 % 1025,9 hPa 0,0 l/m 0,0 km/h N -3,5 C -0,8 C 0,4 km/h
14.01.2020 20:00 -0,8 C 82 % 1026,1 hPa 0,0 l/m 0,1 km/h N -3,5 C -0,8 C 2,4 km/h
14.01.2020 21:00 -0,9 C 82 % 1026,1 hPa 0,0 l/m 0,2 km/h N -3,6 C -0,9 C 4,4 km/h
14.01.2020 22:00 -1,0 C 82 % 1026,1 hPa 0,0 l/m 0,5 km/h N -3,6 C -1,0 C 4,4 km/h
14.01.2020 23:00 -1,0 C 82 % 1026,4 hPa 0,0 l/m 0,7 km/h N -3,7 C -1,0 C 4,4 km/h
15.01.2020 00:00 -1,1 C 82 % 1026,4 hPa 0,0 l/m 0,4 km/h N -3,8 C -1,1 C 4,0 km/h
15.01.2020 01:00 -1,1 C 82 % 1026,4 hPa 0,0 l/m 0,4 km/h N -3,8 C -1,1 C 3,6 km/h
15.01.2020 02:00 -1,2 C 82 % 1026,4 hPa 0,0 l/m 1,0 km/h N -3,8 C -1,2 C 7,2 km/h
15.01.2020 03:00 -1,2 C 82 % 1026,1 hPa 0,0 l/m 0,1 km/h N -3,9 C -1,2 C 3,2 km/h
15.01.2020 04:00 -1,3 C 82 % 1026,0 hPa 0,0 l/m 0,2 km/h N -3,9 C -1,3 C 4,0 km/h
15.01.2020 05:00 -1,2 C 82 % 1026,0 hPa 0,0 l/m 0,7 km/h N -3,9 C -1,2 C 6,4 km/h
15.01.2020 06:00 -1,2 C 82 % 1026,3 hPa 0,0 l/m 0,6 km/h N -3,9 C -1,2 C 5,6 km/h
15.01.2020 07:00 -1,1 C 82 % 1026,4 hPa 0,0 l/m 0,5 km/h N -3,7 C -1,1 C 4,4 km/h
15.01.2020 08:00 -0,8 C 82 % 1026,4 hPa 0,0 l/m 0,2 km/h N -3,5 C -0,8 C 4,8 km/h
15.01.2020 09:00 -1,0 C 82 % 1026,4 hPa 0,0 l/m 0,1 km/h N -3,6 C -1,0 C 4,8 km/h
15.01.2020 10:00 -1,1 C 82 % 1026,5 hPa 0,0 l/m 0,1 km/h N -3,8 C -1,1 C 3,6 km/h
15.01.2020 11:00 -0,8 C 82 % 1026,0 hPa 0,0 l/m 0,3 km/h N -3,5 C -0,8 C 4,0 km/h
15.01.2020 12:00 -0,6 C 82 % 1025,6 hPa 0,0 l/m 0,9 km/h N -3,3 C -0,6 C 5,6 km/h
15.01.2020 13:00 -0,6 C 82 % 1024,9 hPa 0,0 l/m 1,0 km/h N -3,3 C -0,6 C 5,6 km/h
15.01.2020 14:00 -0,5 C 82 % 1024,6 hPa 0,0 l/m 0,6 km/h N -3,2 C -0,5 C 4,8 km/h
15.01.2020 15:00 -0,3 C 82 % 1024,6 hPa 0,0 l/m 0,3 km/h N -3,0 C -0,3 C 4,0 km/h
15.01.2020 16:00 -0,2 C 82 % 1024,4 hPa 0,0 l/m 0,0 km/h N -2,9 C -0,2 C 1,2 km/h
15.01.2020 17:00 0,1 C 82 % 1024,6 hPa 0,0 l/m 0,0 km/h N -2,6 C 0,1 C 0,0 km/h
15.01.2020 18:00 0,3 C 82 % 1025,4 hPa 0,0 l/m 0,0 km/h N -2,4 C 0,3 C 0,0 km/h
15.01.2020 19:00 0,4 C 83 % 1026,0 hPa 0,0 l/m 0,0 km/h N -2,1 C 0,4 C 0,0 km/h
15.01.2020 20:00 0,4 C 83 % 1026,6 hPa 0,0 l/m 0,1 km/h N -2,1 C 0,4 C 1,6 km/h
15.01.2020 21:00 0,2 C 82 % 1027,4 hPa 0,0 l/m 0,4 km/h N -2,5 C 0,2 C 4,4 km/h
15.01.2020 22:00 -0,7 C 82 % 1028,0 hPa 0,0 l/m 0,1 km/h N -3,4 C -0,7 C 1,2 km/h
15.01.2020 23:00 -0,9 C 82 % 1028,9 hPa 0,0 l/m 0,1 km/h N -3,6 C -0,9 C 1,2 km/h
16.01.2020 00:00 -0,8 C 82 % 1029,4 hPa 0,0 l/m 0,0 km/h N -3,4 C -0,8 C 0,4 km/h
16.01.2020 01:00 -1,7 C 82 % 1029,8 hPa 0,0 l/m 0,0 km/h N -4,4 C -1,7 C 0,0 km/h
16.01.2020 02:00 -2,7 C 82 % 1030,2 hPa 0,0 l/m 0,0 km/h N -5,3 C -2,7 C 0,8 km/h
16.01.2020 03:00 -2,3 C 82 % 1030,4 hPa 0,0 l/m 0,0 km/h N -4,9 C -2,3 C 0,4 km/h
16.01.2020 04:00 -1,8 C 82 % 1030,9 hPa 0,0 l/m 0,0 km/h N -4,5 C -1,8 C 0,8 km/h
16.01.2020 05:00 -1,6 C 82 % 1031,3 hPa 0,0 l/m 0,0 km/h N -4,3 C -1,6 C 0,0 km/h
16.01.2020 06:00 -1,3 C 82 % 1031,5 hPa 0,0 l/m 0,0 km/h N -3,9 C -1,3 C 0,0 km/h
16.01.2020 07:00 -1,1 C 82 % 1031,8 hPa 0,0 l/m 0,0 km/h N -3,8 C -1,1 C 0,0 km/h
16.01.2020 08:00 -0,9 C 82 % 1032,3 hPa 0,0 l/m 0,0 km/h N -3,5 C -0,9 C 0,0 km/h
16.01.2020 09:00 -0,4 C 82 % 1032,9 hPa 0,0 l/m 0,0 km/h N -3,1 C -0,4 C 0,0 km/h
16.01.2020 10:00 0,1 C 82 % 1033,3 hPa 0,0 l/m 0,0 km/h N -2,6 C 0,1 C 0,0 km/h
16.01.2020 11:00 0,5 C 82 % 1033,0 hPa 0,0 l/m 0,0 km/h N -2,2 C 0,5 C 0,0 km/h
16.01.2020 12:00 1,1 C 82 % 1032,6 hPa 0,0 l/m 0,0 km/h N -1,6 C 1,1 C 0,0 km/h
16.01.2020 13:00 2,1 C 82 % 1032,3 hPa 0,0 l/m 0,0 km/h N -0,6 C 2,1 C 0,0 km/h
16.01.2020 14:00 2,3 C 82 % 1032,2 hPa 0,0 l/m 0,0 km/h N -0,5 C 2,3 C 0,0 km/h
16.01.2020 15:00 2,6 C 82 % 1031,9 hPa 0,0 l/m 0,0 km/h N -0,2 C 2,6 C 0,0 km/h
16.01.2020 16:00 2,6 C 82 % 1032,2 hPa 0,0 l/m 0,0 km/h N -0,2 C 2,6 C 0,0 km/h
16.01.2020 17:00 2,0 C 83 % 1032,2 hPa 0,0 l/m 0,0 km/h N -0,6 C 2,0 C 0,0 km/h
16.01.2020 18:00 0,6 C 83 % 1032,5 hPa 0,0 l/m 0,0 km/h N -2,0 C 0,6 C 0,0 km/h
16.01.2020 19:00 -0,9 C 83 % 1032,7 hPa 0,0 l/m 0,0 km/h N -3,4 C -0,9 C 0,0 km/h
16.01.2020 20:00 -1,8 C 83 % 1032,8 hPa 0,0 l/m 0,0 km/h N -4,3 C -1,8 C 0,0 km/h
16.01.2020 21:00 -2,3 C 83 % 1032,7 hPa 0,0 l/m 0,0 km/h N -4,8 C -2,3 C 0,0 km/h
16.01.2020 22:00 -2,7 C 83 % 1032,1 hPa 0,0 l/m 0,0 km/h N -5,2 C -2,7 C 0,0 km/h
16.01.2020 23:00 -3,0 C 83 % 1031,8 hPa 0,0 l/m 0,0 km/h N -5,5 C -3,0 C 0,0 km/h
17.01.2020 00:00 -3,4 C 83 % 1031,2 hPa 0,0 l/m 0,0 km/h N -5,8 C -3,4 C 0,0 km/h
17.01.2020 01:00 -3,6 C 83 % 1030,7 hPa 0,0 l/m 0,0 km/h N -6,1 C -3,6 C 0,0 km/h
17.01.2020 02:00 -3,5 C 82 % 1030,3 hPa 0,0 l/m 0,0 km/h N -6,1 C -3,5 C 0,0 km/h
17.01.2020 03:00 -3,3 C 82 % 1029,7 hPa 0,0 l/m 0,0 km/h N -5,9 C -3,3 C 0,0 km/h
17.01.2020 04:00 -2,9 C 82 % 1028,9 hPa 0,0 l/m 0,0 km/h N -5,6 C -2,9 C 0,0 km/h
17.01.2020 05:00 -2,3 C 82 % 1028,4 hPa 0,0 l/m 0,0 km/h N -4,9 C -2,3 C 0,0 km/h
17.01.2020 06:00 -1,8 C 82 % 1028,3 hPa 0,0 l/m 0,0 km/h N -4,4 C -1,8 C 0,0 km/h
17.01.2020 07:00 -1,8 C 82 % 1027,9 hPa 0,0 l/m 0,0 km/h N -4,4 C -1,8 C 0,0 km/h
17.01.2020 08:00 -1,8 C 82 % 1027,8 hPa 0,0 l/m 0,0 km/h N -4,5 C -1,8 C 0,8 km/h
17.01.2020 09:00 -1,8 C 82 % 1027,6 hPa 0,0 l/m 0,1 km/h N -4,5 C -1,8 C 3,2 km/h
17.01.2020 10:00 -1,8 C 82 % 1027,4 hPa 0,0 l/m 0,0 km/h N -4,5 C -1,8 C 1,2 km/h
17.01.2020 11:00 -1,4 C 82 % 1026,8 hPa 0,0 l/m 0,2 km/h N -4,0 C -1,4 C 2,4 km/h
17.01.2020 12:00 -0,7 C 83 % 1026,1 hPa 0,0 l/m 0,6 km/h N -3,2 C -0,7 C 5,2 km/h
17.01.2020 13:00 -0,3 C 83 % 1025,5 hPa 0,0 l/m 0,6 km/h N -2,8 C -0,3 C 4,8 km/h
17.01.2020 14:00 -0,2 C 83 % 1025,3 hPa 0,0 l/m 0,8 km/h N -2,7 C -0,2 C 5,2 km/h
17.01.2020 15:00 -0,3 C 83 % 1025,1 hPa 0,0 l/m 0,5 km/h N -2,8 C -0,3 C 4,8 km/h
17.01.2020 16:00 -0,3 C 83 % 1025,0 hPa 0,0 l/m 0,3 km/h N -2,8 C -0,3 C 3,2 km/h
17.01.2020 17:00 -0,3 C 83 % 1025,1 hPa 0,0 l/m 0,2 km/h N -2,8 C -0,3 C 4,0 km/h
17.01.2020 18:00 -0,3 C 83 % 1025,1 hPa 0,0 l/m 0,1 km/h N -2,8 C -0,3 C 3,6 km/h
17.01.2020 19:00 -0,2 C 83 % 1025,1 hPa 0,0 l/m 0,0 km/h N -2,7 C -0,2 C 0,4 km/h
17.01.2020 20:00 -0,1 C 83 % 1025,1 hPa 0,0 l/m 0,0 km/h N -2,6 C -0,1 C 0,4 km/h
17.01.2020 21:00 -0,1 C 83 % 1025,2 hPa 0,0 l/m 0,0 km/h N -2,6 C -0,1 C 0,8 km/h
17.01.2020 22:00 -0,1 C 83 % 1024,9 hPa 0,0 l/m 0,0 km/h N -2,6 C -0,1 C 0,8 km/h
17.01.2020 23:00 -0,1 C 83 % 1024,7 hPa 0,0 l/m 0,0 km/h N -2,6 C -0,1 C 0,0 km/h
18.01.2020 00:00 -0,2 C 83 % 1024,7 hPa 0,0 l/m 0,0 km/h N -2,7 C -0,2 C 0,0 km/h
18.01.2020 01:00 -0,3 C 83 % 1024,8 hPa 0,0 l/m 0,0 km/h N -2,8 C -0,3 C 0,0 km/h
18.01.2020 02:00 -0,3 C 83 % 1025,2 hPa 0,0 l/m 0,0 km/h N -2,8 C -0,3 C 0,0 km/h
18.01.2020 03:00 -0,4 C 83 % 1025,2 hPa 0,0 l/m 0,0 km/h N -2,9 C -0,4 C 0,4 km/h
18.01.2020 04:00 -0,6 C 83 % 1025,6 hPa 0,0 l/m 0,0 km/h N -3,1 C -0,6 C 0,4 km/h
18.01.2020 05:00 -0,7 C 83 % 1025,8 hPa 0,0 l/m 0,0 km/h N -3,2 C -0,7 C 0,0 km/h
18.01.2020 06:00 -0,7 C 83 % 1026,1 hPa 0,0 l/m 0,0 km/h N -3,2 C -0,7 C 0,0 km/h
18.01.2020 07:00 -0,8 C 83 % 1026,4 hPa 0,0 l/m 0,0 km/h N -3,3 C -0,8 C 0,0 km/h
18.01.2020 08:00 -0,8 C 83 % 1026,7 hPa 0,0 l/m 0,0 km/h N -3,3 C -0,8 C 0,0 km/h
18.01.2020 09:00 -0,8 C 83 % 1026,8 hPa 0,0 l/m 0,0 km/h N -3,3 C -0,8 C 0,0 km/h
18.01.2020 10:00 -0,6 C 83 % 1026,9 hPa 0,0 l/m 0,0 km/h N -3,1 C -0,6 C 0,0 km/h
18.01.2020 11:00 -0,6 C 83 % 1026,5 hPa 0,0 l/m 0,0 km/h N -3,1 C -0,6 C 0,0 km/h
18.01.2020 12:00 -0,6 C 83 % 1026,3 hPa 0,0 l/m 0,0 km/h N -3,1 C -0,6 C 0,0 km/h
18.01.2020 13:00 -0,6 C 83 % 1025,9 hPa 0,0 l/m 0,0 km/h N -3,1 C -0,6 C 0,0 km/h
18.01.2020 14:00 -0,4 C 83 % 1025,7 hPa 0,0 l/m 0,0 km/h N -2,9 C -0,4 C 0,0 km/h
18.01.2020 15:00 -0,4 C 83 % 1025,9 hPa 0,0 l/m 0,0 km/h N -2,9 C -0,4 C 0,0 km/h
18.01.2020 16:00 -0,7 C 83 % 1026,0 hPa 0,0 l/m 0,0 km/h N -3,2 C -0,7 C 0,0 km/h
18.01.2020 17:00 -0,8 C 83 % 1026,3 hPa 0,0 l/m 0,0 km/h N -3,3 C -0,8 C 0,0 km/h
18.01.2020 18:00 -0,7 C 83 % 1026,6 hPa 0,0 l/m 0,0 km/h N -3,2 C -0,7 C 0,0 km/h
18.01.2020 19:00 -0,6 C 83 % 1026,7 hPa 0,0 l/m 0,0 km/h N -3,1 C -0,6 C 0,0 km/h
18.01.2020 20:00 -0,4 C 83 % 1026,6 hPa 0,0 l/m 0,0 km/h N -2,9 C -0,4 C 0,0 km/h
18.01.2020 21:00 -0,2 C 83 % 1026,5 hPa 0,0 l/m 0,0 km/h N -2,6 C -0,2 C 0,0 km/h
18.01.2020 22:00 0,7 C 84 % 1026,4 hPa 0,0 l/m 0,0 km/h N -1,8 C 0,7 C 0,0 km/h
18.01.2020 23:00 2,0 C 84 % 1026,4 hPa 0,0 l/m 0,5 km/h N -0,4 C 2,0 C 3,2 km/h
19.01.2020 00:00 2,6 C 84 % 1026,3 hPa 0,3 l/m 2,6 km/h N 0,2 C 2,6 C 9,3 km/h
19.01.2020 01:00 2,7 C 84 % 1026,4 hPa 1,0 l/m 2,4 km/h N 0,2 C 2,7 C 6,8 km/h
19.01.2020 02:00 2,8 C 84 % 1026,6 hPa 1,0 l/m 4,8 km/h N 0,3 C 2,8 C 13,7 km/h
19.01.2020 03:00 2,9 C 83 % 1026,8 hPa 0,5 l/m 2,8 km/h N 0,2 C 2,9 C 10,5 km/h
19.01.2020 04:00 2,8 C 82 % 1027,0 hPa 0,5 l/m 4,1 km/h N 0,1 C 2,8 C 11,7 km/h
19.01.2020 05:00 2,8 C 81 % 1027,3 hPa 0,3 l/m 4,9 km/h N -0,1 C 2,8 C 13,7 km/h
19.01.2020 06:00 2,8 C 82 % 1027,9 hPa 0,3 l/m 3,9 km/h N 0,0 C 2,8 C 11,7 km/h
19.01.2020 07:00 2,6 C 82 % 1028,4 hPa 0,0 l/m 3,8 km/h N -0,1 C 2,6 C 12,5 km/h
19.01.2020 08:00 2,5 C 82 % 1029,2 hPa 0,3 l/m 3,4 km/h N -0,3 C 2,5 C 13,3 km/h
19.01.2020 09:00 2,6 C 82 % 1029,7 hPa 0,3 l/m 2,2 km/h N -0,2 C 2,6 C 10,5 km/h
19.01.2020 10:00 3,0 C 82 % 1030,3 hPa 0,0 l/m 4,6 km/h N 0,2 C 2,8 C 14,1 km/h
19.01.2020 11:00 3,3 C 82 % 1030,8 hPa 0,0 l/m 5,2 km/h N 0,6 C 3,3 C 15,3 km/h
19.01.2020 12:00 3,2 C 82 % 1031,3 hPa 0,0 l/m 4,3 km/h N 0,4 C 3,2 C 12,9 km/h
19.01.2020 13:00 2,8 C 82 % 1031,5 hPa 0,0 l/m 5,4 km/h N 0,1 C 2,8 C 17,3 km/h
19.01.2020 14:00 2,6 C 82 % 1032,1 hPa 0,0 l/m 2,8 km/h N -0,1 C 2,6 C 10,1 km/h
19.01.2020 15:00 2,6 C 82 % 1032,8 hPa 0,0 l/m 1,6 km/h N -0,2 C 2,6 C 8,9 km/h
19.01.2020 16:00 2,4 C 82 % 1033,7 hPa 0,0 l/m 2,0 km/h N -0,4 C 2,4 C 10,5 km/h
19.01.2020 17:00 2,3 C 82 % 1034,6 hPa 0,0 l/m 3,3 km/h N -0,4 C 2,3 C 13,7 km/h
19.01.2020 18:00 2,2 C 82 % 1035,5 hPa 0,3 l/m 1,9 km/h N -0,6 C 2,2 C 10,0 km/h
19.01.2020 19:00 2,2 C 82 % 1036,3 hPa 0,0 l/m 1,4 km/h N -0,5 C 2,2 C 10,4 km/h
19.01.2020 20:00 2,3 C 82 % 1036,9 hPa 0,0 l/m 1,4 km/h N -0,5 C 2,3 C 8,9 km/h
19.01.2020 21:00 2,1 C 82 % 1037,6 hPa 0,3 l/m 1,6 km/h N -0,6 C 2,1 C 9,7 km/h
19.01.2020 22:00 2,0 C 82 % 1038,1 hPa 0,0 l/m 2,5 km/h N -0,8 C 2,0 C 11,3 km/h
19.01.2020 23:00 2,0 C 82 % 1038,8 hPa 0,5 l/m 2,6 km/h N -0,8 C 2,0 C 11,7 km/h
Min-Datum _ 13.01.20 13.01.20 14.01.20 - 13.01.20 - 13.01.20 13.01.20 13.01.20
_ Min-Zeit 03:30 05:15 01:30 - 00:00 - 03:45 03:45 00:00
Minimum _ -4,3 C 81 % 1022,3 hPa - 0,0 km/h - -6,9 C -4,3 C 0,0 km/h
Max-Datum _ 13.01.20 18.01.20 19.01.20 19.01.20 19.01.20 - 13.01.20 13.01.20 19.01.20
_ Max-Zeit 14:15 21:45 23:30 01:30 10:45 - 14:15 14:15 10:45
Maximum _ 4,6 C 84 % 1039,0 hPa 1,0 l/m 7,0 km/h
N
- 1,8 C 4,6 C 19,3 km/h
N
Durchschnitt _ -0,2 C 82 % 1027,4 hPa #5,5 l/m 0,5 km/h N -2,8 C -0,2 C 2,7 km/h